Time;durP1;ratioP1;P1;durP2;ratioP2;P2;SDS_P1;SDS_P2;PMS_P1;PMS_P2;Temp;Humidity;BMP_temperature;BMP_pressure;BME280_temperature;BME280_humidity;BME280_pressure;Samples;Min_cycle;Max_cycle;Signal;HPM_P1;HPM_P2
2022/10/14 00:00:04;;;;;;;18.38;6.57;;;;;;;11.94;63.56;101018.66;2056937;28;20062;-70
2022/10/14 00:01:18;;;;;;;15.40;6.60;;;;;;;11.92;63.61;101012.75;2064559;28;20035;-70
2022/10/14 00:02:23;;;;;;;15.35;6.35;;;;;;;11.89;63.32;101009.81;2071299;28;20052;-70
2022/10/14 00:03:32;;;;;;;16.52;7.32;;;;;;;11.91;63.26;101015.72;2073518;28;20050;-72
2022/10/14 00:04:37;;;;;;;20.10;6.82;;;;;;;11.90;63.72;101019.50;2081414;28;20596;-72
2022/10/14 00:05:40;;;;;;;23.75;7.18;;;;;;;11.89;63.53;101012.50;2080450;28;20045;-71
2022/10/14 00:06:45;;;;;;;14.95;6.75;;;;;;;11.87;63.31;101015.47;2080867;28;20025;-71
2022/10/14 00:07:49;;;;;;;15.85;6.25;;;;;;;11.87;63.90;101006.56;2073483;28;20041;-71
2022/10/14 00:08:54;;;;;;;16.92;6.93;;;;;;;11.86;63.94;101013.06;2080678;28;20053;-71
2022/10/14 00:09:57;;;;;;;17.48;7.03;;;;;;;11.88;63.99;101011.66;2081354;28;20030;-71
2022/10/14 00:11:09;;;;;;;17.98;7.00;;;;;;;11.91;63.88;101013.00;2080726;28;20456;-71
2022/10/14 00:12:14;;;;;;;16.08;6.60;;;;;;;11.92;63.80;101014.66;2057682;28;20050;-72
2022/10/14 00:13:16;;;;;;;14.55;7.18;;;;;;;11.92;63.95;101006.56;2057479;28;20042;-72
2022/10/14 00:14:19;;;;;;;16.98;7.63;;;;;;;11.91;63.87;101008.44;2056765;28;20043;-72
2022/10/14 00:15:25;;;;;;;15.60;7.30;;;;;;;11.94;63.36;101012.47;2073102;28;20545;-72
2022/10/14 00:16:36;;;;;;;16.90;6.78;;;;;;;11.93;63.79;101006.28;2073134;28;20533;-72
2022/10/14 00:17:40;;;;;;;13.68;6.70;;;;;;;11.94;63.87;101015.16;2071254;28;20034;-72
2022/10/14 00:18:45;;;;;;;17.77;7.32;;;;;;;11.90;63.88;101004.13;2073300;28;20034;-71
2022/10/14 00:19:48;;;;;;;18.02;7.10;;;;;;;11.90;63.91;100997.94;2072561;28;20041;-72
2022/10/14 00:20:56;;;;;;;16.38;7.00;;;;;;;11.91;63.70;101005.72;2065367;28;20041;-72
2022/10/14 00:21:58;;;;;;;14.95;6.50;;;;;;;11.91;63.76;100999.53;2073021;28;20132;-72
2022/10/14 00:23:05;;;;;;;21.63;7.93;;;;;;;11.92;64.12;101009.25;2056535;28;20034;-73
2022/10/14 00:24:11;;;;;;;19.00;8.05;;;;;;;11.90;63.77;101001.44;2057910;28;20510;-72
2022/10/14 00:25:14;;;;;;;15.90;7.47;;;;;;;11.90;63.81;101000.63;2065326;28;20039;-72
2022/10/14 00:26:20;;;;;;;15.02;7.38;;;;;;;11.85;64.34;100995.25;2064356;28;20046;-73
2022/10/14 00:27:27;;;;;;;13.80;6.78;;;;;;;11.85;64.31;101000.66;2057878;28;20483;-73
2022/10/14 00:28:30;;;;;;;15.40;7.18;;;;;;;11.85;64.46;101000.66;2057797;28;20054;-73
2022/10/14 00:29:37;;;;;;;15.90;7.82;;;;;;;11.85;64.09;100997.94;2065581;28;20053;-72
2022/10/14 00:30:39;;;;;;;18.65;7.90;;;;;;;11.85;64.20;100995.25;2073083;28;20053;-72
2022/10/14 00:31:44;;;;;;;18.70;7.13;;;;;;;11.85;64.42;100995.25;2080632;28;20036;-72
2022/10/14 00:32:46;;;;;;;18.38;7.55;;;;;;;11.84;64.37;100994.41;2071403;28;20038;-72
2022/10/14 00:33:49;;;;;;;19.40;7.93;;;;;;;11.83;64.49;100995.50;2072588;28;20052;-72
2022/10/14 00:34:54;;;;;;;23.88;7.38;;;;;;;11.82;64.73;100992.03;2072178;28;20042;-72
2022/10/14 00:35:59;;;;;;;20.17;6.90;;;;;;;11.81;64.17;100995.78;2073349;28;20043;-72
2022/10/14 00:37:11;;;;;;;14.75;6.75;;;;;;;11.82;64.66;100996.56;2073893;28;20037;-72
2022/10/14 00:38:13;;;;;;;14.20;7.38;;;;;;;11.81;64.68;100995.78;2057626;28;20039;-73
2022/10/14 00:39:16;;;;;;;18.38;7.63;;;;;;;11.81;64.37;100990.38;2056256;28;20043;-73
2022/10/14 00:40:21;;;;;;;16.20;7.20;;;;;;;11.78;64.82;100990.94;2057710;28;20430;-73
2022/10/14 00:41:30;;;;;;;17.70;7.20;;;;;;;11.78;64.36;100995.53;2073283;28;20048;-72
2022/10/14 00:42:36;;;;;;;19.80;7.40;;;;;;;11.74;64.77;100987.19;2072733;28;20036;-73
2022/10/14 00:44:04;;;;;;;15.93;7.43;;;;;;;11.73;65.07;100988.28;2072196;28;20059;-72
2022/10/14 00:45:12;;;;;;;15.88;7.45;;;;;;;11.67;64.75;100981.31;2079535;28;20035;-72
2022/10/14 00:46:20;;;;;;;16.02;7.05;;;;;;;11.69;65.02;100987.19;2079520;28;20057;-72
2022/10/14 00:47:30;;;;;;;17.90;7.57;;;;;;;11.70;65.12;100988.03;2073044;28;20045;-72
2022/10/14 00:48:33;;;;;;;20.38;7.57;;;;;;;11.68;65.28;100982.09;2081591;28;20033;-73
2022/10/14 00:49:44;;;;;;;20.55;7.70;;;;;;;11.67;65.13;100975.91;2063988;28;20034;-73
2022/10/14 00:50:51;;;;;;;17.55;7.75;;;;;;;11.69;65.44;100981.00;2067180;28;20027;-73
2022/10/14 00:52:07;;;;;;;18.45;8.07;;;;;;;11.70;65.22;100978.06;2080670;28;20037;-72
2022/10/14 00:53:13;;;;;;;16.75;7.32;;;;;;;11.72;65.21;100978.56;2080213;28;20029;-72
2022/10/14 00:54:22;;;;;;;15.55;7.28;;;;;;;11.74;65.25;100983.69;2071937;28;20041;-72
2022/10/14 00:55:27;;;;;;;16.38;7.55;;;;;;;11.76;65.67;100979.66;2057829;28;20039;-72
2022/10/14 00:56:34;;;;;;;16.60;7.97;;;;;;;11.79;65.21;100975.56;2072774;28;20052;-72
2022/10/14 00:57:41;;;;;;;25.33;7.45;;;;;;;11.81;65.37;100976.91;2080019;28;20041;-72
2022/10/14 00:58:48;;;;;;;14.57;7.43;;;;;;;11.86;65.24;100976.13;2072212;28;20044;-73
2022/10/14 01:00:00;;;;;;;16.42;7.78;;;;;;;11.89;65.43;100974.78;2066419;28;20034;-72
2022/10/14 01:01:08;;;;;;;19.45;8.00;;;;;;;11.90;65.15;100971.78;2073724;28;20417;-72
2022/10/14 01:02:11;;;;;;;17.70;8.07;;;;;;;11.93;65.12;100975.81;2064594;28;20089;-72
2022/10/14 01:03:20;;;;;;;20.35;8.55;;;;;;;11.94;65.01;100972.84;2056324;28;20557;-71
2022/10/14 01:04:28;;;;;;;18.67;8.13;;;;;;;11.94;64.96;100970.16;2066863;28;20069;-72
2022/10/14 01:05:42;;;;;;;18.98;8.32;;;;;;;11.93;65.05;100971.25;2079661;28;20049;-73
2022/10/14 01:07:09;;;;;;;22.55;8.55;;;;;;;11.93;65.16;100973.13;2073925;28;20041;-72
2022/10/14 01:08:23;;;;;;;22.10;8.95;;;;;;;11.93;64.92;100973.13;2075916;28;20041;-72
2022/10/14 01:09:43;;;;;;;22.02;8.40;;;;;;;11.91;64.67;100978.78;2072204;28;20042;-72
2022/10/14 01:11:00;;;;;;;16.13;7.18;;;;;;;11.89;65.06;100975.59;2074141;28;20045;-72
2022/10/14 01:12:16;;;;;;;20.13;8.25;;;;;;;11.85;64.82;100974.50;2074647;28;20042;-72
2022/10/14 01:13:32;;;;;;;19.50;8.75;;;;;;;11.83;65.00;100974.75;2072211;28;20493;-72
2022/10/14 01:14:45;;;;;;;16.40;7.60;;;;;;;11.82;65.14;100970.47;2074101;28;20045;-73
2022/10/14 01:16:19;;;;;;;21.63;8.18;;;;;;;11.80;65.17;100961.03;2073698;28;20046;-72
2022/10/14 01:17:32;;;;;;;20.30;7.90;;;;;;;11.78;65.42;100965.88;2060126;28;20041;-73
2022/10/14 01:18:50;;;;;;;17.77;8.07;;;;;;;11.79;65.45;100964.78;2072058;28;20073;-72
2022/10/14 01:20:21;;;;;;;19.35;8.15;;;;;;;11.79;65.52;100971.00;2080572;28;20040;-72
2022/10/14 01:21:31;;;;;;;26.55;8.40;;;;;;;11.78;65.45;100968.59;2079982;28;20041;-72
2022/10/14 01:22:58;;;;;;;18.73;7.95;;;;;;;11.76;65.56;100958.09;2073186;28;20557;-72
2022/10/14 01:24:34;;;;;;;25.48;8.52;;;;;;;11.73;65.60;100961.34;2066490;28;20038;-72
2022/10/14 01:26:03;;;;;;;17.83;8.18;;;;;;;11.70;65.86;100959.19;2076533;28;20383;-72
2022/10/14 01:27:15;;;;;;;20.08;8.15;;;;;;;11.67;65.41;100962.44;2075671;28;20048;-73
2022/10/14 01:28:31;;;;;;;22.83;8.10;;;;;;;11.67;66.02;100956.25;2066009;28;20046;-72
2022/10/14 01:29:59;;;;;;;18.98;7.85;;;;;;;11.64;65.64;100954.91;2073641;28;20429;-73
2022/10/14 01:31:14;;;;;;;19.95;8.35;;;;;;;11.61;65.96;100963.53;2063816;28;20034;-73
2022/10/14 01:32:45;;;;;;;20.85;8.30;;;;;;;11.59;65.93;100961.09;2061692;28;20055;-73
2022/10/14 01:33:52;;;;;;;26.02;9.05;;;;;;;11.59;66.08;100957.63;2066262;28;20045;-73
2022/10/14 01:35:32;;;;;;;16.33;9.10;;;;;;;11.56;66.04;100955.47;2073543;28;20034;-73
2022/10/14 01:36:49;;;;;;;19.10;8.70;;;;;;;11.53;66.39;100956.81;2039553;29;20044;-73
2022/10/14 01:38:09;;;;;;;23.70;8.23;;;;;;;11.51;66.21;100950.13;2068834;28;20057;-73
2022/10/14 01:39:36;;;;;;;20.17;8.57;;;;;;;11.53;66.54;100956.03;2063812;28;20038;-73
2022/10/14 01:40:45;;;;;;;22.15;9.20;;;;;;;11.51;66.62;100942.03;2061224;28;20034;-73
2022/10/14 01:41:59;;;;;;;19.02;9.25;;;;;;;11.50;66.40;100951.19;2073097;28;20044;-73
2022/10/14 01:43:04;;;;;;;19.23;8.73;;;;;;;11.44;66.24;100953.09;2072029;28;20049;-72
2022/10/14 01:44:11;;;;;;;18.52;8.70;;;;;;;11.43;66.96;100950.69;2072438;28;20046;-73
2022/10/14 01:45:19;;;;;;;21.02;8.32;;;;;;;11.44;67.00;100947.69;2072008;28;20041;-73
2022/10/14 01:46:29;;;;;;;14.35;8.63;;;;;;;11.45;67.16;100951.22;2073736;28;20057;-73
2022/10/14 01:47:34;;;;;;;19.75;8.18;;;;;;;11.46;67.10;100948.25;2063771;28;20046;-73
2022/10/14 01:48:43;;;;;;;23.98;8.88;;;;;;;11.45;67.25;100951.22;2063854;28;20521;-73
2022/10/14 01:49:54;;;;;;;26.30;8.85;;;;;;;11.43;67.26;100945.28;2072986;28;20069;-73
2022/10/14 01:51:00;;;;;;;18.85;8.40;;;;;;;11.43;67.15;100950.69;2072003;28;20034;-73
2022/10/14 01:52:22;;;;;;;16.98;8.50;;;;;;;11.42;67.33;100951.78;2072938;28;20049;-73
2022/10/14 01:53:30;;;;;;;18.80;8.73;;;;;;;11.42;67.19;100944.50;2071986;28;20045;-72
2022/10/14 01:54:41;;;;;;;19.75;8.77;;;;;;;11.42;67.40;100941.00;2066129;28;20046;-73
2022/10/14 01:55:51;;;;;;;17.85;8.68;;;;;;;11.39;67.14;100945.03;2065607;28;20034;-73
2022/10/14 01:57:04;;;;;;;23.20;8.50;;;;;;;11.35;67.10;100938.59;2064862;28;20039;-73
2022/10/14 01:58:12;;;;;;;20.55;8.80;;;;;;;11.31;67.34;100938.31;2065945;28;20039;-72
2022/10/14 01:59:25;;;;;;;20.92;8.93;;;;;;;11.29;67.55;100945.06;2066001;28;20521;-72
2022/10/14 02:00:34;;;;;;;20.52;8.68;;;;;;;11.27;67.45;100937.25;2072300;28;20121;-72
2022/10/14 02:01:41;;;;;;;16.75;8.80;;;;;;;11.26;67.32;100945.63;2058032;28;20038;-72
2022/10/14 02:02:46;;;;;;;26.33;8.82;;;;;;;11.26;67.41;100941.03;2065459;28;20056;-72
2022/10/14 02:03:49;;;;;;;18.05;9.50;;;;;;;11.25;67.72;100944.78;2078777;28;20048;-72
2022/10/14 02:04:53;;;;;;;22.23;8.52;;;;;;;11.24;67.85;100943.19;2071880;28;20037;-72
2022/10/14 02:06:04;;;;;;;23.25;9.45;;;;;;;11.25;67.76;100939.41;2064200;28;20046;-72
2022/10/14 02:07:31;;;;;;;17.55;8.35;;;;;;;11.28;67.88;100946.94;2058155;28;20058;-72
2022/10/14 02:08:46;;;;;;;16.45;8.82;;;;;;;11.29;67.76;100945.06;2069929;28;20052;-72
2022/10/14 02:10:22;;;;;;;29.30;8.45;;;;;;;11.30;68.03;100949.38;2073694;28;20033;-72
2022/10/14 02:11:25;;;;;;;17.63;8.18;;;;;;;11.29;67.55;100937.00;2071752;28;20033;-72
2022/10/14 02:12:50;;;;;;;19.83;9.05;;;;;;;11.27;67.96;100931.88;2073153;28;20034;-72
2022/10/14 02:14:12;;;;;;;20.30;8.55;;;;;;;11.24;67.73;100935.13;2071532;28;20520;-71
2022/10/14 02:15:42;;;;;;;21.75;8.75;;;;;;;11.22;68.21;100937.25;2053815;28;20051;-72
2022/10/14 02:17:09;;;;;;;22.17;8.95;;;;;;;11.21;68.19;100932.97;2065733;28;20045;-72
2022/10/14 02:18:19;;;;;;;18.65;8.75;;;;;;;11.20;68.13;100930.56;2071612;28;20049;-72
2022/10/14 02:19:45;;;;;;;17.17;8.07;;;;;;;11.20;68.41;100928.69;2050313;28;20043;-72
2022/10/14 02:21:09;;;;;;;15.35;8.35;;;;;;;11.22;68.48;100928.38;2070308;28;20037;-71
2022/10/14 02:22:46;;;;;;;20.08;8.93;;;;;;;11.24;68.49;100931.63;2079998;28;20401;-73
2022/10/14 02:24:04;;;;;;;24.80;9.20;;;;;;;11.23;68.59;100930.81;2071745;28;20026;-71
2022/10/14 02:25:18;;;;;;;22.02;8.65;;;;;;;11.21;68.30;100927.59;2066271;28;20049;-73
2022/10/14 02:26:25;;;;;;;24.00;9.20;;;;;;;11.25;68.57;100925.16;2065282;28;20042;-73
2022/10/14 02:27:30;;;;;;;21.02;9.13;;;;;;;11.24;68.51;100932.41;2048138;28;20043;-72
2022/10/14 02:28:38;;;;;;;23.20;9.07;;;;;;;11.29;68.33;100923.53;2056861;28;20042;-73
2022/10/14 02:29:50;;;;;;;18.38;9.25;;;;;;;11.30;68.33;100927.84;2073210;28;20045;-73
2022/10/14 02:31:01;;;;;;;24.52;9.02;;;;;;;11.28;68.37;100928.09;2071792;28;20029;-73
2022/10/14 02:32:06;;;;;;;20.88;9.05;;;;;;;11.23;68.77;100925.44;2064754;28;20057;-73
2022/10/14 02:33:08;;;;;;;21.65;9.35;;;;;;;11.24;68.71;100927.03;2064298;28;20391;-73
2022/10/14 02:34:13;;;;;;;19.52;8.80;;;;;;;11.24;68.85;100927.03;2069415;28;20049;-73
2022/10/14 02:35:18;;;;;;;21.38;8.40;;;;;;;11.26;68.57;100926.78;2072226;28;20568;-73
2022/10/14 02:36:23;;;;;;;26.20;9.85;;;;;;;11.28;69.00;100928.09;2064199;28;20429;-73
2022/10/14 02:37:29;;;;;;;20.50;9.00;;;;;;;11.31;68.39;100930.25;2057216;28;20039;-73
2022/10/14 02:38:36;;;;;;;20.45;8.32;;;;;;;11.30;68.48;100928.63;2065076;28;20034;-73
2022/10/14 02:39:45;;;;;;;18.52;8.60;;;;;;;11.31;68.68;100932.94;2072254;28;20049;-73
2022/10/14 02:40:51;;;;;;;24.42;8.68;;;;;;;11.28;68.33;100933.47;2072849;28;20055;-73
2022/10/14 02:41:57;;;;;;;19.75;8.63;;;;;;;11.22;68.74;100931.06;2072373;28;20042;-73
2022/10/14 02:43:06;;;;;;;19.50;8.32;;;;;;;11.18;68.83;100922.75;2072133;28;20058;-73
2022/10/14 02:44:11;;;;;;;16.53;8.23;;;;;;;11.16;68.41;100929.47;2071719;28;20037;-73
2022/10/14 02:45:16;;;;;;;20.38;8.60;;;;;;;11.15;69.01;100923.28;2072628;28;20301;-72
2022/10/14 02:46:22;;;;;;;20.65;8.88;;;;;;;11.13;69.35;100925.47;2072162;28;20047;-73
2022/10/14 02:47:27;;;;;;;18.25;9.00;;;;;;;11.12;69.42;100923.84;2072177;28;20046;-73
2022/10/14 02:48:33;;;;;;;19.70;9.20;;;;;;;11.11;69.36;100917.66;2070698;28;20049;-72
2022/10/14 02:49:40;;;;;;;19.65;9.25;;;;;;;11.10;69.61;100926.81;2056526;28;20030;-73
2022/10/14 02:50:48;;;;;;;23.30;9.50;;;;;;;11.09;69.21;100929.75;2064906;28;20680;-72
2022/10/14 02:51:53;;;;;;;19.73;9.98;;;;;;;11.06;69.22;100919.53;2063865;28;20034;-72
2022/10/14 02:52:55;;;;;;;17.83;8.65;;;;;;;11.02;69.58;100923.88;2065590;28;20049;-73
2022/10/14 02:54:00;;;;;;;22.60;8.38;;;;;;;11.01;69.30;100916.88;2074041;28;20068;-73
2022/10/14 02:55:02;;;;;;;19.60;9.02;;;;;;;11.01;69.65;100917.69;2072532;28;20050;-73
2022/10/14 02:56:07;;;;;;;22.38;9.48;;;;;;;11.03;69.84;100920.09;2056973;28;20043;-72
2022/10/14 02:57:18;;;;;;;19.27;8.93;;;;;;;11.05;69.34;100913.38;2050509;28;20046;-71
2022/10/14 02:58:20;;;;;;;20.25;9.70;;;;;;;11.05;69.73;100912.56;2067745;28;20526;-72
2022/10/14 02:59:25;;;;;;;20.08;9.50;;;;;;;11.02;69.60;100913.09;2064715;28;20102;-70
2022/10/14 03:00:27;;;;;;;20.10;9.30;;;;;;;11.00;70.02;100908.00;2065607;28;20049;-71
2022/10/14 03:01:31;;;;;;;20.52;9.52;;;;;;;11.01;69.84;100911.50;2072966;28;20418;-72
2022/10/14 03:02:36;;;;;;;19.30;9.63;;;;;;;11.04;69.81;100908.28;2072918;28;20052;-71
2022/10/14 03:03:39;;;;;;;21.15;9.40;;;;;;;11.06;69.78;100906.09;2056350;28;20053;-71
2022/10/14 03:04:44;;;;;;;17.50;9.48;;;;;;;11.09;69.53;100910.94;2049439;28;20093;-72
2022/10/14 03:05:49;;;;;;;23.15;9.18;;;;;;;11.12;69.83;100905.00;2065629;28;20450;-70
2022/10/14 03:06:54;;;;;;;21.38;9.23;;;;;;;11.13;69.33;100906.63;2065272;28;20042;-70
2022/10/14 03:08:01;;;;;;;22.52;8.98;;;;;;;11.16;69.33;100907.94;2074176;28;20068;-70
2022/10/14 03:09:08;;;;;;;21.02;9.48;;;;;;;11.17;69.46;100905.00;2081266;28;20033;-70
2022/10/14 03:10:17;;;;;;;25.75;10.40;;;;;;;11.18;69.47;100906.59;2073367;28;20060;-70
2022/10/14 03:11:20;;;;;;;29.05;9.25;;;;;;;11.20;69.31;100907.16;2072451;28;20046;-70
2022/10/14 03:12:25;;;;;;;21.17;9.82;;;;;;;11.21;69.53;100905.25;2064880;28;20038;-71
2022/10/14 03:13:30;;;;;;;20.88;8.98;;;;;;;11.21;69.49;100903.38;2073758;28;20040;-71
2022/10/14 03:14:32;;;;;;;18.50;9.00;;;;;;;11.23;69.45;100901.22;2065070;28;20046;-70
2022/10/14 03:15:40;;;;;;;23.05;9.68;;;;;;;11.24;69.43;100899.31;2057220;28;20062;-70
2022/10/14 03:16:45;;;;;;;25.08;9.70;;;;;;;11.24;69.52;100900.13;2067235;28;20038;-71
2022/10/14 03:17:58;;;;;;;20.52;9.73;;;;;;;11.24;68.97;100900.13;2073630;28;20513;-70
2022/10/14 03:19:15;;;;;;;17.08;8.63;;;;;;;11.26;69.42;100903.34;2066293;28;20041;-70
2022/10/14 03:20:23;;;;;;;19.33;9.15;;;;;;;11.27;69.56;100898.78;2067807;28;20054;-71
2022/10/14 03:21:33;;;;;;;21.45;9.45;;;;;;;11.29;69.47;100904.69;2074230;28;20053;-71
2022/10/14 03:22:42;;;;;;;30.83;10.43;;;;;;;11.28;69.08;100901.19;2065452;28;20065;-71
2022/10/14 03:23:51;;;;;;;21.05;8.95;;;;;;;11.28;69.46;100903.88;2066866;28;20034;-71
2022/10/14 03:25:04;;;;;;;22.73;9.50;;;;;;;11.27;69.14;100899.56;2074726;28;20045;-71
2022/10/14 03:26:23;;;;;;;20.13;10.07;;;;;;;11.27;68.94;100904.16;2080441;28;20046;-71
2022/10/14 03:27:31;;;;;;;21.48;9.93;;;;;;;11.25;69.26;100896.34;2080362;28;20544;-72
2022/10/14 03:28:40;;;;;;;19.38;9.55;;;;;;;11.25;69.28;100892.84;2081429;28;20049;-71
2022/10/14 03:29:55;;;;;;;24.45;9.65;;;;;;;11.22;69.23;100888.81;2072723;28;20030;-72
2022/10/14 03:31:05;;;;;;;16.88;8.38;;;;;;;11.23;69.04;100893.13;2066600;28;20034;-71
2022/10/14 03:32:24;;;;;;;26.35;9.95;;;;;;;11.24;69.74;100888.56;2075760;28;20053;-72
2022/10/14 03:33:47;;;;;;;25.02;9.32;;;;;;;11.19;69.24;100886.69;2081644;28;20382;-71
2022/10/14 03:34:56;;;;;;;19.65;8.63;;;;;;;11.16;69.61;100887.25;2072298;28;20556;-71
2022/10/14 03:36:01;;;;;;;21.90;9.45;;;;;;;11.16;69.42;100887.25;2066756;28;20038;-71
2022/10/14 03:37:16;;;;;;;21.65;9.68;;;;;;;11.16;70.04;100881.88;2074627;28;20038;-71
2022/10/14 03:38:27;;;;;;;21.17;9.55;;;;;;;11.12;69.60;100880.78;2065911;28;20486;-71
2022/10/14 03:39:33;;;;;;;23.02;9.50;;;;;;;11.08;69.79;100877.84;2073518;28;20045;-71
2022/10/14 03:40:39;;;;;;;18.25;9.45;;;;;;;11.09;70.37;100884.03;2072703;28;20045;-71
2022/10/14 03:41:50;;;;;;;18.70;9.50;;;;;;;11.07;70.16;100884.31;2074397;28;20030;-71
2022/10/14 03:42:59;;;;;;;26.95;10.23;;;;;;;11.05;69.98;100881.06;2064693;28;20090;-71
2022/10/14 03:44:10;;;;;;;23.38;10.50;;;;;;;11.02;70.33;100881.63;2061431;28;20034;-71
2022/10/14 03:45:24;;;;;;;29.10;10.43;;;;;;;10.97;70.54;100880.81;2073317;28;20050;-71
2022/10/14 03:46:31;;;;;;;22.70;9.68;;;;;;;10.94;70.74;100881.38;2074583;28;20046;-71
2022/10/14 03:47:33;;;;;;;19.98;9.35;;;;;;;10.85;70.61;100889.22;2072585;28;20049;-71
2022/10/14 03:48:36;;;;;;;19.60;9.77;;;;;;;10.79;71.06;100891.09;2064247;28;20046;-70
2022/10/14 03:49:38;;;;;;;31.73;9.85;;;;;;;10.75;71.82;100889.19;2071658;28;20355;-70
2022/10/14 03:50:51;;;;;;;25.50;9.77;;;;;;;10.65;71.70;100890.03;2080395;28;20070;-71
2022/10/14 03:51:55;;;;;;;21.42;10.00;;;;;;;10.61;71.83;100891.66;2080839;28;20385;-71
2022/10/14 03:53:02;;;;;;;25.98;9.75;;;;;;;10.57;72.25;100890.59;2073230;28;20398;-71
2022/10/14 03:54:14;;;;;;;21.85;9.90;;;;;;;10.57;72.34;100888.69;2065943;28;20114;-71
2022/10/14 03:55:16;;;;;;;24.10;10.02;;;;;;;10.58;72.67;100895.69;2065818;28;20046;-71
2022/10/14 03:56:28;;;;;;;18.58;9.07;;;;;;;10.62;72.50;100895.94;2059071;28;20055;-71
2022/10/14 03:57:31;;;;;;;27.15;10.05;;;;;;;10.63;73.20;100895.69;2075315;28;20045;-72
2022/10/14 03:58:37;;;;;;;25.20;10.13;;;;;;;10.64;73.09;100893.78;2072709;28;20049;-71
2022/10/14 03:59:49;;;;;;;22.83;9.48;;;;;;;10.66;72.82;100894.34;2059733;28;20054;-71
2022/10/14 04:00:54;;;;;;;25.98;9.82;;;;;;;10.67;72.72;100895.94;2066440;28;20042;-71
2022/10/14 04:02:11;;;;;;;20.55;9.18;;;;;;;10.68;72.86;100897.56;2066638;28;20556;-71
2022/10/14 04:03:20;;;;;;;25.42;9.70;;;;;;;10.65;73.13;100898.88;2049187;28;20462;-71
2022/10/14 04:04:23;;;;;;;21.67;9.80;;;;;;;10.65;73.45;100893.50;2057241;28;20046;-71
2022/10/14 04:05:32;;;;;;;19.95;9.57;;;;;;;10.64;72.86;100899.16;2064687;28;20057;-71
2022/10/14 04:06:41;;;;;;;21.70;9.85;;;;;;;10.60;73.56;100890.03;2073635;28;20046;-70
2022/10/14 04:07:45;;;;;;;18.20;9.35;;;;;;;10.56;73.46;100889.78;2056410;28;20053;-71
2022/10/14 04:08:49;;;;;;;21.65;9.45;;;;;;;10.54;73.30;100891.13;2057245;28;20479;-71
2022/10/14 04:10:07;;;;;;;22.08;9.93;;;;;;;10.54;73.52;100893.81;2064491;28;20042;-71
2022/10/14 04:11:17;;;;;;;24.55;9.68;;;;;;;10.53;73.97;100886.81;2067693;28;20034;-71
2022/10/14 04:12:22;;;;;;;20.55;9.98;;;;;;;10.52;73.63;100887.88;2056910;28;20042;-71
2022/10/14 04:13:33;;;;;;;21.20;9.85;;;;;;;10.52;73.98;100883.31;2065831;28;20045;-70
2022/10/14 04:14:39;;;;;;;28.52;10.55;;;;;;;10.48;73.67;100881.44;2056731;28;20042;-70
2022/10/14 04:15:43;;;;;;;26.85;10.73;;;;;;;10.51;74.09;100880.91;2057620;28;20047;-71
2022/10/14 04:16:56;;;;;;;23.45;10.15;;;;;;;10.48;74.13;100868.00;2065722;28;20046;-70
2022/10/14 04:18:05;;;;;;;23.20;9.52;;;;;;;10.48;74.03;100870.69;2072502;28;20402;-70
2022/10/14 04:19:12;;;;;;;30.00;11.65;;;;;;;10.50;74.06;100869.34;2049648;28;20043;-71
2022/10/14 04:20:16;;;;;;;25.38;9.60;;;;;;;10.47;74.36;100863.72;2057743;28;20053;-71
2022/10/14 04:21:23;;;;;;;21.42;9.90;;;;;;;10.44;73.99;100865.84;2064503;28;20046;-72
2022/10/14 04:22:28;;;;;;;30.30;10.38;;;;;;;10.43;74.33;100869.63;2073567;28;20037;-72
2022/10/14 04:23:31;;;;;;;24.17;10.52;;;;;;;10.43;74.79;100869.63;2056681;28;20097;-72
2022/10/14 04:24:42;;;;;;;20.67;9.50;;;;;;;10.43;74.96;100866.94;2058586;28;20045;-72
2022/10/14 04:25:48;;;;;;;25.83;10.48;;;;;;;10.44;74.66;100865.84;2073103;28;20072;-72
2022/10/14 04:26:54;;;;;;;23.40;9.60;;;;;;;10.47;74.78;100861.81;2080489;28;20043;-73
2022/10/14 04:28:16;;;;;;;25.73;10.95;;;;;;;10.50;74.72;100857.75;2079953;28;20768;-71
2022/10/14 04:29:25;;;;;;;24.70;10.65;;;;;;;10.50;74.62;100863.16;2068935;28;20482;-72
2022/10/14 04:30:37;;;;;;;26.58;10.25;;;;;;;10.49;74.68;100861.53;2053127;28;20050;-73
2022/10/14 04:31:41;;;;;;;21.88;10.38;;;;;;;10.49;74.74;100864.22;2055764;28;20108;-72
2022/10/14 04:32:47;;;;;;;20.95;10.13;;;;;;;10.50;73.94;100868.53;2064024;28;20046;-71
2022/10/14 04:33:53;;;;;;;28.67;10.70;;;;;;;10.51;74.17;100864.78;2063354;28;20049;-72
2022/10/14 04:35:08;;;;;;;24.27;10.88;;;;;;;10.52;74.43;100864.50;2051290;28;20059;-72
2022/10/14 04:36:16;;;;;;;21.33;10.30;;;;;;;10.52;74.18;100856.44;2064064;28;20057;-72
2022/10/14 04:37:19;;;;;;;23.15;10.55;;;;;;;10.54;74.54;100861.53;2062476;28;20120;-72
2022/10/14 04:38:37;;;;;;;22.17;10.27;;;;;;;10.52;74.36;100861.00;2056687;28;20059;-72
2022/10/14 04:39:46;;;;;;;25.33;10.65;;;;;;;10.47;74.49;100866.41;2066022;28;20042;-72
2022/10/14 04:40:58;;;;;;;20.80;11.05;;;;;;;10.46;74.59;100864.78;2070003;28;20050;-72
2022/10/14 04:42:05;;;;;;;24.88;10.38;;;;;;;10.45;74.02;100861.28;2055761;28;20042;-74
2022/10/14 04:43:10;;;;;;;23.13;10.00;;;;;;;10.44;73.96;100855.09;2055884;28;20109;-72
2022/10/14 04:44:17;;;;;;;33.78;11.43;;;;;;;10.44;74.43;100867.75;2056108;28;20047;-72
2022/10/14 04:45:27;;;;;;;21.55;10.25;;;;;;;10.45;74.29;100874.72;2063033;28;20054;-74
2022/10/14 04:46:35;;;;;;;24.95;11.18;;;;;;;10.46;74.48;100867.47;2063595;28;20057;-69
2022/10/14 04:47:38;;;;;;;27.60;10.18;;;;;;;10.46;74.52;100868.25;2062055;28;20046;-75
2022/10/14 04:48:49;;;;;;;19.20;9.85;;;;;;;10.46;74.43;100868.25;2055942;28;20043;-76
2022/10/14 04:49:53;;;;;;;25.25;11.25;;;;;;;10.47;74.09;100869.09;2064999;28;20045;-75
2022/10/14 04:51:00;;;;;;;20.80;10.07;;;;;;;10.47;74.76;100864.50;2071590;28;20046;-75
2022/10/14 04:52:36;;;;;;;23.80;10.32;;;;;;;10.50;74.90;100868.53;2053719;28;20051;-75
2022/10/14 04:53:44;;;;;;;23.90;10.90;;;;;;;10.51;74.57;100859.41;2066557;28;20049;-74
2022/10/14 04:55:02;;;;;;;24.65;10.35;;;;;;;10.53;74.24;100870.66;2059471;28;20047;-74
2022/10/14 04:56:17;;;;;;;19.77;9.63;;;;;;;10.52;74.61;100864.50;2067669;28;20516;-71
2022/10/14 04:57:33;;;;;;;19.52;9.82;;;;;;;10.54;74.27;100861.53;2061039;28;20391;-74
2022/10/14 04:58:38;;;;;;;27.60;11.18;;;;;;;10.54;74.72;100866.94;2064791;28;20050;-75
2022/10/14 04:59:50;;;;;;;29.88;11.80;;;;;;;10.55;74.38;100861.25;2056014;28;20584;-78
2022/10/14 05:01:04;;;;;;;25.75;10.65;;;;;;;10.56;74.44;100857.53;2063177;28;20053;-77
2022/10/14 05:02:13;;;;;;;36.47;12.20;;;;;;;10.57;74.06;100861.81;2080946;28;20064;-74
2022/10/14 05:03:24;;;;;;;29.13;11.40;;;;;;;10.58;74.30;100854.53;2080430;28;20075;-74
2022/10/14 05:04:32;;;;;;;29.20;9.77;;;;;;;10.61;74.55;100859.38;2072368;28;20073;-74
2022/10/14 05:05:38;;;;;;;19.88;9.50;;;;;;;10.61;74.06;100859.38;2072671;28;20038;-76
2022/10/14 05:06:41;;;;;;;23.58;10.07;;;;;;;10.62;74.13;100864.50;2071816;28;20038;-77
2022/10/14 05:07:46;;;;;;;19.27;9.70;;;;;;;10.64;74.15;100861.53;2065275;28;20042;-76
2022/10/14 05:09:17;;;;;;;21.50;9.93;;;;;;;10.64;73.94;100864.22;2061884;28;20052;-74
2022/10/14 05:10:25;;;;;;;25.75;10.38;;;;;;;10.64;74.01;100854.25;2053113;28;20042;-74
2022/10/14 05:11:29;;;;;;;24.17;11.02;;;;;;;10.63;73.72;100857.25;2058076;28;20054;-76
2022/10/14 05:12:38;;;;;;;19.50;9.77;;;;;;;10.65;74.47;100855.06;2065171;28;20394;-74
2022/10/14 05:13:43;;;;;;;21.90;10.10;;;;;;;10.63;74.18;100846.47;2072873;28;20057;-77
2022/10/14 05:14:46;;;;;;;20.58;10.43;;;;;;;10.61;74.17;100852.13;2071802;28;20060;-74
2022/10/14 05:15:55;;;;;;;22.80;10.40;;;;;;;10.60;74.10;100838.97;2072649;28;20050;-74
2022/10/14 05:16:58;;;;;;;26.67;10.70;;;;;;;10.59;74.18;100851.59;2057059;28;20042;-74
2022/10/14 05:18:05;;;;;;;22.33;10.27;;;;;;;10.56;73.84;100844.06;2065518;28;20037;-73
2022/10/14 05:19:29;;;;;;;23.70;10.65;;;;;;;10.55;73.83;100845.13;2079637;28;20041;-74